createdAt,value
2023-04-27T00:01:42.432Z,4.58
2023-04-27T00:04:09.633Z,4.94
2023-04-27T00:06:37.015Z,5.04
2023-04-27T00:09:04.716Z,5.26
2023-04-27T00:11:32.561Z,5.04
2023-04-27T00:13:59.744Z,4.57
2023-04-27T00:16:26.882Z,4.79
2023-04-27T00:18:54.256Z,4.45
2023-04-27T00:21:21.611Z,4.66
2023-04-27T00:23:48.643Z,4.40
2023-04-27T00:26:15.760Z,4.94
2023-04-27T00:28:45.560Z,4.66
2023-04-27T00:31:12.777Z,5.14
2023-04-27T00:33:39.883Z,5.07
2023-04-27T00:36:07.356Z,4.50
2023-04-27T00:38:34.358Z,3.23
2023-04-27T00:41:05.769Z,4.84
2023-04-27T00:43:33.478Z,5.26
2023-04-27T00:46:01.117Z,4.99
2023-04-27T00:48:28.719Z,5.15
2023-04-27T00:50:56.136Z,5.11
2023-04-27T00:53:23.227Z,5.13
2023-04-27T00:55:50.253Z,5.07
2023-04-27T00:58:17.366Z,4.94
2023-04-27T01:00:44.371Z,5.04
2023-04-27T01:03:11.626Z,4.96
2023-04-27T01:05:39.380Z,4.61
2023-04-27T01:08:08.232Z,4.82
2023-04-27T01:10:35.350Z,4.57
2023-04-27T01:13:02.516Z,4.60
2023-04-27T01:15:31.436Z,4.39
2023-04-27T01:18:02.280Z,4.93
2023-04-27T01:20:30.611Z,4.75
2023-04-27T01:22:58.694Z,4.50
2023-04-27T01:25:26.354Z,4.16
2023-04-27T01:27:54.612Z,4.63
2023-04-27T01:30:25.171Z,4.07
2023-04-27T01:32:52.275Z,4.49
2023-04-27T01:35:19.871Z,5.02
2023-04-27T01:37:47.050Z,5.14
2023-04-27T01:40:14.467Z,4.60
2023-04-27T01:42:41.494Z,4.73
2023-04-27T01:45:09.669Z,5.05
2023-04-27T01:47:37.915Z,5.06
2023-04-27T01:50:06.417Z,4.29
2023-04-27T01:52:33.666Z,4.75
2023-04-27T01:55:02.822Z,4.05
2023-04-27T01:57:29.893Z,4.97
2023-04-27T01:59:57.120Z,4.55
2023-04-27T02:02:24.536Z,5.05
2023-04-27T02:04:52.057Z,4.49
2023-04-27T02:07:19.660Z,4.09
2023-04-27T02:09:46.909Z,4.93
2023-04-27T02:12:14.459Z,4.53
2023-04-27T02:14:41.451Z,4.25
2023-04-27T02:17:08.465Z,4.86
2023-04-27T02:19:36.464Z,4.03
2023-04-27T02:22:04.211Z,4.64
2023-04-27T02:24:31.341Z,4.21
2023-04-27T02:26:58.423Z,4.32
2023-04-27T02:29:30.587Z,4.22
2023-04-27T02:31:58.513Z,3.88
2023-04-27T02:34:25.716Z,4.54
2023-04-27T02:36:53.089Z,4.31
2023-04-27T02:39:20.249Z,4.14
2023-04-27T02:41:47.198Z,3.95
2023-04-27T02:44:15.763Z,4.78
2023-04-27T02:46:42.887Z,4.55
2023-04-27T02:49:10.083Z,4.65
2023-04-27T02:51:37.029Z,4.52
2023-04-27T02:54:04.402Z,4.61
2023-04-27T02:56:31.700Z,4.48
2023-04-27T02:58:59.198Z,4.34
2023-04-27T03:01:26.598Z,4.70
2023-04-27T03:03:54.020Z,4.30
2023-04-27T03:06:21.196Z,4.26
2023-04-27T03:08:48.191Z,4.82
2023-04-27T03:11:15.276Z,4.69
2023-04-27T03:13:42.366Z,4.76
2023-04-27T03:16:12.394Z,4.72
2023-04-27T03:18:40.185Z,4.04
2023-04-27T03:21:10.928Z,4.59
2023-04-27T03:23:38.312Z,4.22
2023-04-27T03:26:09.935Z,4.35
2023-04-27T03:28:37.858Z,4.37
2023-04-27T03:31:06.526Z,4.12
2023-04-27T03:33:34.143Z,4.14
2023-04-27T03:36:01.354Z,3.79
2023-04-27T03:38:29.160Z,4.18
2023-04-27T03:40:56.798Z,3.72
2023-04-27T03:43:25.300Z,3.97
2023-04-27T03:45:53.275Z,3.01
2023-04-27T03:48:21.172Z,4.24
2023-04-27T03:50:49.116Z,3.75
2023-04-27T03:53:16.365Z,3.84
2023-04-27T03:55:46.822Z,3.87
2023-04-27T03:58:14.699Z,3.69
2023-04-27T04:01:00.669Z,3.55
2023-04-27T04:03:28.501Z,3.46
2023-04-27T04:05:56.029Z,4.11
2023-04-27T04:08:23.554Z,3.59
2023-04-27T04:10:51.095Z,3.93
2023-04-27T04:13:18.200Z,3.59
2023-04-27T04:15:45.906Z,3.36
2023-04-27T04:18:13.038Z,2.44
2023-04-27T04:20:40.180Z,2.45
2023-04-27T04:23:33.127Z,3.84
2023-04-27T04:26:02.401Z,3.25
2023-04-27T04:28:34.275Z,3.25
2023-04-27T04:31:02.318Z,2.60
2023-04-27T04:33:29.496Z,3.76
2023-04-27T04:35:56.558Z,2.06
2023-04-27T04:38:24.068Z,3.30
2023-04-27T04:40:53.070Z,3.15
2023-04-27T04:43:20.228Z,3.26
2023-04-27T04:45:48.028Z,3.59
2023-04-27T04:48:16.780Z,3.73
2023-04-27T04:50:45.618Z,3.13
2023-04-27T04:53:14.653Z,3.34
2023-04-27T04:55:42.713Z,3.76
2023-04-27T04:58:10.352Z,3.36
2023-04-27T05:00:37.354Z,3.42
2023-04-27T05:03:04.642Z,3.87
2023-04-27T05:05:31.954Z,3.96
2023-04-27T05:07:59.010Z,3.72
2023-04-27T05:10:26.115Z,3.54
2023-04-27T05:12:53.481Z,3.53
2023-04-27T05:15:21.293Z,2.33
2023-04-27T05:17:48.355Z,3.85
2023-04-27T05:20:16.144Z,4.10
2023-04-27T05:22:43.272Z,4.13
2023-04-27T05:25:10.300Z,4.10
2023-04-27T05:27:37.322Z,3.36
2023-04-27T05:30:04.890Z,3.99
2023-04-27T05:32:33.940Z,3.68
2023-04-27T05:35:01.184Z,4.10
2023-04-27T05:37:28.220Z,2.76
2023-04-27T05:39:55.364Z,4.09
2023-04-27T05:42:22.623Z,3.66
2023-04-27T05:44:49.960Z,3.72
2023-04-27T05:47:17.126Z,4.12
2023-04-27T05:49:44.325Z,4.05
2023-04-27T05:52:11.427Z,2.69
2023-04-27T05:54:38.434Z,3.11
2023-04-27T05:57:06.345Z,2.75
2023-04-27T05:59:33.696Z,2.54
2023-04-27T06:02:00.819Z,3.72
2023-04-27T06:04:28.027Z,4.21
2023-04-27T06:06:55.227Z,3.90
2023-04-27T06:09:22.283Z,4.07
2023-04-27T06:11:49.318Z,3.76
2023-04-27T06:14:24.033Z,4.29
2023-04-27T06:16:51.319Z,4.23
2023-04-27T06:19:18.480Z,4.04
2023-04-27T06:21:45.702Z,3.97
2023-04-27T06:24:12.831Z,3.86
2023-04-27T06:26:39.786Z,3.41
2023-04-27T06:29:08.222Z,2.88
2023-04-27T06:31:35.390Z,3.89
2023-04-27T06:34:02.652Z,4.31
2023-04-27T06:36:29.724Z,4.26
2023-04-27T06:38:56.864Z,3.79
2023-04-27T06:41:26.191Z,4.61
2023-04-27T06:43:54.270Z,4.22
2023-04-27T06:46:21.469Z,4.61
2023-04-27T06:48:49.740Z,4.18
2023-04-27T06:51:16.757Z,3.93
2023-04-27T06:53:43.915Z,4.61
2023-04-27T06:56:12.441Z,4.16
2023-04-27T06:58:39.467Z,4.71
2023-04-27T07:01:07.158Z,4.64
2023-04-27T07:03:37.407Z,4.33
2023-04-27T07:06:04.715Z,4.43
2023-04-27T07:08:31.762Z,4.36
2023-04-27T07:10:58.795Z,4.61
2023-04-27T07:13:25.893Z,4.42
2023-04-27T07:15:59.251Z,4.67
2023-04-27T07:18:28.248Z,4.85
2023-04-27T07:20:56.525Z,5.04
2023-04-27T07:23:24.009Z,4.57
2023-04-27T07:25:51.087Z,5.05
2023-04-27T07:28:18.659Z,5.01
2023-04-27T07:30:45.919Z,5.02
2023-04-27T07:33:13.290Z,4.65
2023-04-27T07:35:42.119Z,4.72
2023-04-27T07:38:09.177Z,4.74
2023-04-27T07:40:36.605Z,5.07
2023-04-27T07:43:05.722Z,5.38
2023-04-27T07:45:33.120Z,4.89
2023-04-27T07:48:02.458Z,5.12
2023-04-27T07:50:30.303Z,5.42
2023-04-27T07:52:58.077Z,5.20
2023-04-27T07:55:26.551Z,5.07
2023-04-27T07:57:54.306Z,5.10
2023-04-27T08:00:22.483Z,5.42
2023-04-27T08:02:50.947Z,5.19
2023-04-27T08:05:18.988Z,5.18
2023-04-27T08:07:46.958Z,5.63
2023-04-27T08:10:15.203Z,5.15
2023-04-27T08:12:42.434Z,5.57
2023-04-27T08:15:11.297Z,5.47
2023-04-27T08:17:41.152Z,5.70
2023-04-27T08:20:12.667Z,6.00
2023-04-27T08:22:43.058Z,6.09
2023-04-27T08:25:10.350Z,5.49
2023-04-27T08:27:41.115Z,6.14
2023-04-27T08:30:08.718Z,5.70
2023-04-27T08:32:35.903Z,5.74
2023-04-27T08:35:03.493Z,5.88
2023-04-27T08:37:30.764Z,6.02
2023-04-27T08:39:57.814Z,6.03
2023-04-27T08:42:25.102Z,5.98
2023-04-27T08:44:59.622Z,5.74
2023-04-27T08:47:38.999Z,6.23
2023-04-27T08:50:09.797Z,6.32
2023-04-27T08:52:37.981Z,6.30
2023-04-27T08:55:07.617Z,6.37
2023-04-27T08:57:34.887Z,6.36
2023-04-27T09:00:02.298Z,6.78
2023-04-27T09:02:29.981Z,6.46
2023-04-27T09:04:57.459Z,6.51
2023-04-27T09:07:26.229Z,6.87
2023-04-27T09:10:04.313Z,6.86
2023-04-27T09:12:31.328Z,6.89
2023-04-27T09:14:59.600Z,7.49
2023-04-27T09:17:30.818Z,7.29
2023-04-27T09:20:13.833Z,7.10
2023-04-27T09:23:00.039Z,7.56
2023-04-27T09:25:33.179Z,7.96
2023-04-27T09:28:01.381Z,7.76
2023-04-27T09:30:29.757Z,8.19
2023-04-27T09:33:02.102Z,8.32
2023-04-27T09:35:33.580Z,8.12
2023-04-27T09:38:01.846Z,8.07
2023-04-27T09:40:31.547Z,7.97
2023-04-27T09:43:01.868Z,8.20
2023-04-27T09:45:29.467Z,8.19
2023-04-27T09:47:56.636Z,8.07
2023-04-27T09:50:23.684Z,8.13
2023-04-27T09:52:50.664Z,7.70
2023-04-27T09:55:27.604Z,8.18
2023-04-27T09:58:19.197Z,8.13
2023-04-27T10:01:20.831Z,8.10
2023-04-27T10:04:09.708Z,8.15
2023-04-27T10:06:39.815Z,8.01
2023-04-27T10:09:07.621Z,7.93
2023-04-27T10:11:44.870Z,7.77
2023-04-27T10:14:18.409Z,7.83
2023-04-27T10:16:56.792Z,7.94
2023-04-27T10:19:25.879Z,8.09
2023-04-27T10:22:00.716Z,8.17
2023-04-27T10:24:33.458Z,8.17
2023-04-27T10:27:03.453Z,8.21
2023-04-27T10:29:37.078Z,8.31
2023-04-27T10:32:13.185Z,8.35
2023-04-27T10:34:43.262Z,7.83
2023-04-27T10:37:12.149Z,8.41
2023-04-27T10:39:47.661Z,8.54
2023-04-27T10:42:28.660Z,8.20
2023-04-27T10:45:01.523Z,8.41
2023-04-27T10:47:39.638Z,8.37
2023-04-27T10:50:11.679Z,7.93
2023-04-27T10:52:43.057Z,8.26
2023-04-27T10:55:17.943Z,8.13
2023-04-27T10:57:52.217Z,8.63
2023-04-27T11:00:44.350Z,8.39
2023-04-27T11:03:23.439Z,8.15
2023-04-27T11:06:00.869Z,8.18
2023-04-27T11:08:27.924Z,7.74
2023-04-27T11:10:55.236Z,7.73
2023-04-27T11:13:33.133Z,8.67
2023-04-27T11:16:00.586Z,8.45
2023-04-27T11:18:31.681Z,8.63
2023-04-27T11:21:10.545Z,7.77
2023-04-27T11:23:40.885Z,8.86
2023-04-27T11:26:18.230Z,8.86
2023-04-27T11:29:09.843Z,8.96
2023-04-27T11:31:40.969Z,8.99
2023-04-27T11:34:08.539Z,8.82
2023-04-27T11:36:36.248Z,7.30
2023-04-27T11:39:06.608Z,8.25
2023-04-27T11:41:35.402Z,8.90
2023-04-27T11:44:10.105Z,8.67
2023-04-27T11:46:38.287Z,8.76
2023-04-27T11:49:09.063Z,9.11
2023-04-27T11:51:36.799Z,9.27
2023-04-27T11:54:07.587Z,9.69
2023-04-27T11:56:42.602Z,9.55
2023-04-27T11:59:19.469Z,9.85
2023-04-27T12:01:47.015Z,8.97
2023-04-27T12:04:14.587Z,9.60
2023-04-27T12:06:44.050Z,9.70
2023-04-27T12:09:11.455Z,10.12
2023-04-27T12:11:39.839Z,9.90
2023-04-27T12:14:07.430Z,9.96
2023-04-27T12:16:35.889Z,8.88
2023-04-27T12:19:03.277Z,8.88
2023-04-27T12:21:32.374Z,10.13
2023-04-27T12:23:59.513Z,10.47
2023-04-27T12:26:26.851Z,10.13
2023-04-27T12:28:53.863Z,9.19
2023-04-27T12:31:26.899Z,10.80
2023-04-27T12:33:54.875Z,9.86
2023-04-27T12:36:21.923Z,9.72
2023-04-27T12:38:49.012Z,11.12
2023-04-27T12:41:16.049Z,10.50
2023-04-27T12:43:43.832Z,11.32
2023-04-27T12:46:11.781Z,11.07
2023-04-27T12:48:38.965Z,10.92
2023-04-27T12:51:07.006Z,11.04
2023-04-27T12:53:34.046Z,10.38
2023-04-27T12:56:02.225Z,11.04
2023-04-27T12:58:36.853Z,10.46
2023-04-27T13:01:04.002Z,10.86
2023-04-27T13:03:31.388Z,10.37
2023-04-27T13:05:58.495Z,11.21
2023-04-27T13:08:25.808Z,10.94
2023-04-27T13:10:53.540Z,11.24
2023-04-27T13:13:20.756Z,10.23
2023-04-27T13:15:55.211Z,10.64
2023-04-27T13:18:22.824Z,11.07
2023-04-27T13:20:50.019Z,10.99
2023-04-27T13:23:18.202Z,10.58
2023-04-27T13:25:45.227Z,11.29
2023-04-27T13:28:12.779Z,9.56
2023-04-27T13:30:39.892Z,11.25
2023-04-27T13:33:21.221Z,10.84
2023-04-27T13:35:51.127Z,11.12
2023-04-27T13:38:18.305Z,11.14
2023-04-27T13:40:45.501Z,11.14
2023-04-27T13:43:12.400Z,10.89
2023-04-27T13:45:40.252Z,10.05
2023-04-27T13:48:07.647Z,10.26
2023-04-27T13:50:34.864Z,10.75
2023-04-27T13:53:02.237Z,10.42
2023-04-27T13:55:29.372Z,9.79
2023-04-27T13:57:57.571Z,10.26
2023-04-27T14:00:25.582Z,10.22
2023-04-27T14:02:53.213Z,9.69
2023-04-27T14:05:20.526Z,9.03
2023-04-27T14:07:48.039Z,9.89
2023-04-27T14:10:15.357Z,9.91
2023-04-27T14:12:42.558Z,9.89
2023-04-27T14:15:10.052Z,9.53
2023-04-27T14:17:37.033Z,9.37
2023-04-27T14:20:07.094Z,9.50
2023-04-27T14:22:35.365Z,9.25
2023-04-27T14:25:02.833Z,9.43
2023-04-27T14:27:29.903Z,8.22
2023-04-27T14:29:56.924Z,7.93
2023-04-27T14:32:26.686Z,9.28
2023-04-27T14:34:54.480Z,9.59
2023-04-27T14:37:21.549Z,9.00
2023-04-27T14:39:48.665Z,9.30
2023-04-27T14:42:16.527Z,7.68
2023-04-27T14:44:43.586Z,9.13
2023-04-27T14:47:10.869Z,8.54
2023-04-27T14:49:38.273Z,9.32
2023-04-27T14:52:06.849Z,9.13
2023-04-27T14:54:35.807Z,8.79
2023-04-27T14:57:07.069Z,7.57
2023-04-27T14:59:34.643Z,8.57
2023-04-27T15:02:02.448Z,8.93
2023-04-27T15:04:29.637Z,8.48
2023-04-27T15:06:57.199Z,8.32
2023-04-27T15:09:24.206Z,7.48
2023-04-27T15:11:51.377Z,8.87
2023-04-27T15:14:18.517Z,9.39
2023-04-27T15:16:45.515Z,8.68
2023-04-27T15:19:13.394Z,8.19
2023-04-27T15:21:40.809Z,7.31
2023-04-27T15:24:07.835Z,8.95
2023-04-27T15:26:34.966Z,8.69
2023-04-27T15:29:02.844Z,8.19
2023-04-27T15:31:30.167Z,9.14
2023-04-27T15:33:57.423Z,6.94
2023-04-27T15:36:27.040Z,7.67
2023-04-27T15:38:54.716Z,8.87
2023-04-27T15:41:22.260Z,8.28
2023-04-27T15:43:50.784Z,7.88
2023-04-27T15:46:20.036Z,8.82
2023-04-27T15:48:47.055Z,9.04
2023-04-27T15:51:14.028Z,8.40
2023-04-27T15:53:41.062Z,8.61
2023-04-27T15:56:08.208Z,8.50
2023-04-27T15:58:35.163Z,8.89
2023-04-27T16:01:02.700Z,8.78
2023-04-27T16:03:30.890Z,8.70
2023-04-27T16:06:04.192Z,8.27
2023-04-27T16:08:32.389Z,8.68
2023-04-27T16:11:00.867Z,8.36
2023-04-27T16:13:28.658Z,8.24
2023-04-27T16:15:56.055Z,8.54
2023-04-27T16:18:23.602Z,8.45
2023-04-27T16:20:50.693Z,7.53
2023-04-27T16:23:20.512Z,8.48
2023-04-27T16:25:48.420Z,8.08
2023-04-27T16:28:16.717Z,7.82
2023-04-27T16:30:43.744Z,8.22
2023-04-27T16:33:10.933Z,8.13
2023-04-27T16:35:38.201Z,8.26
2023-04-27T16:38:06.172Z,8.25
2023-04-27T16:40:34.201Z,8.16
2023-04-27T16:43:01.389Z,8.34
2023-04-27T16:45:28.815Z,8.14
2023-04-27T16:47:55.954Z,8.20
2023-04-27T16:50:23.011Z,7.98
2023-04-27T16:52:50.187Z,7.95
2023-04-27T16:55:17.548Z,7.31
2023-04-27T16:57:46.441Z,8.23
2023-04-27T17:00:14.585Z,7.48
2023-04-27T17:02:43.739Z,7.77
2023-04-27T17:05:11.352Z,7.71
2023-04-27T17:07:38.432Z,8.33
2023-04-27T17:10:08.427Z,8.08
2023-04-27T17:12:39.088Z,8.20
2023-04-27T17:15:07.216Z,8.13
2023-04-27T17:17:35.153Z,8.36
2023-04-27T17:20:02.380Z,7.91
2023-04-27T17:22:30.168Z,8.37
2023-04-27T17:24:57.729Z,8.33
2023-04-27T17:27:25.011Z,8.28
2023-04-27T17:29:54.026Z,7.99
2023-04-27T17:32:21.040Z,8.01
2023-04-27T17:34:48.012Z,7.78
2023-04-27T17:37:15.055Z,7.61
2023-04-27T17:39:42.058Z,8.30
2023-04-27T17:42:12.543Z,7.88
2023-04-27T17:44:41.696Z,7.72
2023-04-27T17:47:09.358Z,8.23
2023-04-27T17:49:36.524Z,8.16
2023-04-27T17:52:03.883Z,7.79
2023-04-27T17:54:31.032Z,8.03
2023-04-27T17:56:58.144Z,7.86
2023-04-27T17:59:25.191Z,7.87
2023-04-27T18:01:52.831Z,7.66
2023-04-27T18:04:21.373Z,7.95
2023-04-27T18:06:48.453Z,7.92
2023-04-27T18:09:16.289Z,7.52
2023-04-27T18:11:43.549Z,7.88
2023-04-27T18:14:10.592Z,7.70
2023-04-27T18:16:37.732Z,7.33
2023-04-27T18:19:04.736Z,7.91
2023-04-27T18:21:31.834Z,7.94
2023-04-27T18:23:58.882Z,7.57
2023-04-27T18:26:26.804Z,7.93
2023-04-27T18:28:53.965Z,7.95
2023-04-27T18:31:21.137Z,7.87
2023-04-27T18:33:48.183Z,7.64
2023-04-27T18:36:15.227Z,7.91
2023-04-27T18:38:42.251Z,7.43
2023-04-27T18:41:09.529Z,7.95
2023-04-27T18:43:39.109Z,7.58
2023-04-27T18:46:06.345Z,7.85
2023-04-27T18:48:39.538Z,7.57
2023-04-27T18:51:06.558Z,7.71
2023-04-27T18:53:33.730Z,7.76
2023-04-27T18:56:03.879Z,7.55
2023-04-27T18:58:33.452Z,7.52
2023-04-27T19:01:00.548Z,7.25
2023-04-27T19:03:27.928Z,7.82
2023-04-27T19:05:55.070Z,7.62
2023-04-27T19:08:21.995Z,7.48
2023-04-27T19:10:51.120Z,7.07
2023-04-27T19:13:18.107Z,7.80
2023-04-27T19:15:45.164Z,7.67
2023-04-27T19:18:15.193Z,7.52
2023-04-27T19:20:42.353Z,7.58
2023-04-27T19:23:12.687Z,7.28
2023-04-27T19:25:40.636Z,7.39
2023-04-27T19:28:08.059Z,7.62
2023-04-27T19:30:38.021Z,7.37
2023-04-27T19:33:05.222Z,7.51
2023-04-27T19:35:32.246Z,7.48
2023-04-27T19:37:59.290Z,7.23
2023-04-27T19:40:26.384Z,7.15
2023-04-27T19:42:53.437Z,7.07
2023-04-27T19:45:22.311Z,7.28
2023-04-27T19:47:49.933Z,7.48
2023-04-27T19:50:17.781Z,7.07
2023-04-27T19:52:55.303Z,6.53
2023-04-27T19:55:22.417Z,6.77
2023-04-27T19:57:49.431Z,6.64
2023-04-27T20:00:16.664Z,7.26
2023-04-27T20:02:44.032Z,7.03
2023-04-27T20:05:11.806Z,7.19
2023-04-27T20:07:38.971Z,6.10
2023-04-27T20:10:08.826Z,7.26
2023-04-27T20:15:06.717Z,7.00
2023-04-27T20:17:34.288Z,7.13
2023-04-27T20:20:01.422Z,7.02
2023-04-27T20:22:28.767Z,7.07
2023-04-27T20:24:59.399Z,7.26
2023-04-27T20:27:26.484Z,7.28
2023-04-27T20:29:53.464Z,6.62
2023-04-27T20:32:20.980Z,6.80
2023-04-27T20:34:47.924Z,6.94
2023-04-27T20:37:17.200Z,7.12
2023-04-27T20:39:44.143Z,6.93
2023-04-27T20:42:12.739Z,6.97
2023-04-27T20:44:39.845Z,7.06
2023-04-27T20:47:06.996Z,6.60
2023-04-27T20:49:35.417Z,6.90
2023-04-27T20:52:03.263Z,6.18
2023-04-27T20:54:33.402Z,6.38
2023-04-27T20:57:03.932Z,6.12
2023-04-27T20:59:31.157Z,6.63
2023-04-27T21:01:58.134Z,6.32
2023-04-27T21:04:25.330Z,5.87
2023-04-27T21:06:52.908Z,6.67
2023-04-27T21:09:20.029Z,6.35
2023-04-27T21:11:47.041Z,6.56
2023-04-27T21:14:14.311Z,6.54
2023-04-27T21:16:41.596Z,6.38
2023-04-27T21:19:14.907Z,6.40
2023-04-27T21:21:42.120Z,6.21
2023-04-27T21:24:11.232Z,6.50
2023-04-27T21:26:38.391Z,6.16
2023-04-27T21:29:06.111Z,6.16
2023-04-27T21:31:33.798Z,6.47
2023-04-27T21:34:01.296Z,6.21
2023-04-27T21:36:28.954Z,5.67
2023-04-27T21:38:56.144Z,6.04
2023-04-27T21:41:23.107Z,6.21
2023-04-27T21:43:51.297Z,5.93
2023-04-27T21:46:21.345Z,6.20
2023-04-27T21:48:51.011Z,4.86
2023-04-27T21:51:17.992Z,5.85
2023-04-27T21:53:44.918Z,5.68
2023-04-27T21:56:11.916Z,5.39
2023-04-27T21:58:38.869Z,5.86
2023-04-27T22:01:06.124Z,6.03
2023-04-27T22:03:33.542Z,5.99
2023-04-27T22:06:04.590Z,5.49
2023-04-27T22:08:31.871Z,5.43
2023-04-27T22:10:58.890Z,5.92
2023-04-27T22:13:26.046Z,5.72
2023-04-27T22:15:53.016Z,5.88
2023-04-27T22:18:20.195Z,5.98
2023-04-27T22:20:47.491Z,5.92
2023-04-27T22:23:14.564Z,5.55
2023-04-27T22:25:43.335Z,6.04
2023-04-27T22:28:11.176Z,6.00
2023-04-27T22:30:39.012Z,5.50
2023-04-27T22:33:06.497Z,5.25
2023-04-27T22:35:34.307Z,5.74
2023-04-27T22:38:01.323Z,5.60
2023-04-27T22:40:28.400Z,5.59
2023-04-27T22:42:55.619Z,5.73
2023-04-27T22:45:23.551Z,5.66
2023-04-27T22:47:51.101Z,5.73
2023-04-27T22:50:18.637Z,5.58
2023-04-27T22:52:45.638Z,5.76
2023-04-27T22:55:13.286Z,5.70
2023-04-27T22:57:41.938Z,5.50
2023-04-27T23:00:11.729Z,5.45
2023-04-27T23:02:43.389Z,5.00
2023-04-27T23:05:13.496Z,5.55
2023-04-27T23:07:44.081Z,5.12
2023-04-27T23:10:11.483Z,5.17
2023-04-27T23:12:41.091Z,5.45
2023-04-27T23:15:09.572Z,4.88
2023-04-27T23:17:37.050Z,5.39
2023-04-27T23:20:20.377Z,5.24
2023-04-27T23:22:54.012Z,5.45
2023-04-27T23:25:24.179Z,5.37
2023-04-27T23:27:52.408Z,5.30
2023-04-27T23:30:20.636Z,5.10
2023-04-27T23:32:47.606Z,4.69
2023-04-27T23:35:15.032Z,5.20
2023-04-27T23:37:42.059Z,4.90
2023-04-27T23:40:09.465Z,4.42
2023-04-27T23:42:36.961Z,4.87
2023-04-27T23:45:04.398Z,4.91
2023-04-27T23:47:33.976Z,4.70
2023-04-27T23:50:02.510Z,4.97
2023-04-27T23:52:29.565Z,5.26
2023-04-27T23:54:58.137Z,5.26
2023-04-27T23:57:25.361Z,4.88
2023-04-27T23:59:52.414Z,4.29
